sensor_id;sensor_type;location;lat;lon;timestamp;P1;durP1;ratioP1;P2;durP2;ratioP2
18711;SDS011;9485;49.386;8.674;2022-11-15T00:04:07;4.83;;;4.33;;
18711;SDS011;9485;49.386;8.674;2022-11-15T00:09:46;5.93;;;4.50;;
18711;SDS011;9485;49.386;8.674;2022-11-15T00:15:27;5.17;;;4.50;;
18711;SDS011;9485;49.386;8.674;2022-11-15T00:21:07;4.87;;;3.90;;
18711;SDS011;9485;49.386;8.674;2022-11-15T00:26:49;6.00;;;4.30;;
18711;SDS011;9485;49.386;8.674;2022-11-15T00:32:31;5.90;;;4.10;;
18711;SDS011;9485;49.386;8.674;2022-11-15T00:38:11;4.90;;;4.33;;
18711;SDS011;9485;49.386;8.674;2022-11-15T00:43:51;5.43;;;4.37;;
18711;SDS011;9485;49.386;8.674;2022-11-15T00:49:32;3.77;;;3.47;;
18711;SDS011;9485;49.386;8.674;2022-11-15T00:55:13;4.67;;;3.77;;
18711;SDS011;9485;49.386;8.674;2022-11-15T01:00:55;4.27;;;3.60;;
18711;SDS011;9485;49.386;8.674;2022-11-15T01:06:36;4.20;;;3.57;;
18711;SDS011;9485;49.386;8.674;2022-11-15T01:12:15;4.10;;;3.47;;
18711;SDS011;9485;49.386;8.674;2022-11-15T01:17:55;4.77;;;3.70;;
18711;SDS011;9485;49.386;8.674;2022-11-15T01:23:37;4.97;;;3.20;;
18711;SDS011;9485;49.386;8.674;2022-11-15T01:29:17;3.13;;;2.83;;
18711;SDS011;9485;49.386;8.674;2022-11-15T01:34:57;4.43;;;3.60;;
18711;SDS011;9485;49.386;8.674;2022-11-15T01:40:38;3.90;;;2.93;;
18711;SDS011;9485;49.386;8.674;2022-11-15T01:46:22;5.30;;;3.10;;
18711;SDS011;9485;49.386;8.674;2022-11-15T01:52:08;3.27;;;2.97;;
18711;SDS011;9485;49.386;8.674;2022-11-15T01:57:55;4.17;;;3.07;;
18711;SDS011;9485;49.386;8.674;2022-11-15T02:03:41;3.77;;;2.67;;
18711;SDS011;9485;49.386;8.674;2022-11-15T02:09:29;2.80;;;2.53;;
18711;SDS011;9485;49.386;8.674;2022-11-15T02:15:10;3.40;;;2.70;;
18711;SDS011;9485;49.386;8.674;2022-11-15T02:20:56;4.43;;;2.87;;
18711;SDS011;9485;49.386;8.674;2022-11-15T02:33:26;3.50;;;2.70;;
18711;SDS011;9485;49.386;8.674;2022-11-15T02:39:15;3.00;;;2.70;;
18711;SDS011;9485;49.386;8.674;2022-11-15T02:45:05;3.07;;;2.67;;
18711;SDS011;9485;49.386;8.674;2022-11-15T02:50:51;3.30;;;2.97;;
18711;SDS011;9485;49.386;8.674;2022-11-15T02:56:31;2.97;;;2.77;;
18711;SDS011;9485;49.386;8.674;2022-11-15T03:02:18;3.53;;;2.87;;
18711;SDS011;9485;49.386;8.674;2022-11-15T03:08:17;3.23;;;2.70;;
18711;SDS011;9485;49.386;8.674;2022-11-15T03:14:07;3.87;;;2.70;;
18711;SDS011;9485;49.386;8.674;2022-11-15T03:19:58;3.63;;;2.87;;
18711;SDS011;9485;49.386;8.674;2022-11-15T03:25:43;4.07;;;2.70;;
18711;SDS011;9485;49.386;8.674;2022-11-15T03:31:29;4.10;;;2.73;;
18711;SDS011;9485;49.386;8.674;2022-11-15T03:37:29;3.17;;;2.87;;
18711;SDS011;9485;49.386;8.674;2022-11-15T03:43:19;5.50;;;2.90;;
18711;SDS011;9485;49.386;8.674;2022-11-15T03:49:13;3.47;;;3.17;;
18711;SDS011;9485;49.386;8.674;2022-11-15T03:55:01;3.37;;;2.93;;
18711;SDS011;9485;49.386;8.674;2022-11-15T04:00:44;4.07;;;2.90;;
18711;SDS011;9485;49.386;8.674;2022-11-15T04:06:23;4.13;;;3.03;;
18711;SDS011;9485;49.386;8.674;2022-11-15T04:12:04;3.20;;;2.60;;
18711;SDS011;9485;49.386;8.674;2022-11-15T04:17:46;3.10;;;2.80;;
18711;SDS011;9485;49.386;8.674;2022-11-15T04:23:29;3.93;;;3.20;;
18711;SDS011;9485;49.386;8.674;2022-11-15T04:29:38;3.23;;;2.93;;
18711;SDS011;9485;49.386;8.674;2022-11-15T04:35:18;3.10;;;2.80;;
18711;SDS011;9485;49.386;8.674;2022-11-15T04:40:58;4.67;;;2.97;;
18711;SDS011;9485;49.386;8.674;2022-11-15T04:46:38;2.63;;;2.43;;
18711;SDS011;9485;49.386;8.674;2022-11-15T04:52:19;4.03;;;2.67;;
18711;SDS011;9485;49.386;8.674;2022-11-15T04:57:59;4.23;;;2.53;;
18711;SDS011;9485;49.386;8.674;2022-11-15T05:03:39;2.87;;;2.60;;
18711;SDS011;9485;49.386;8.674;2022-11-15T05:09:38;2.27;;;2.07;;
18711;SDS011;9485;49.386;8.674;2022-11-15T05:15:18;2.53;;;2.33;;
18711;SDS011;9485;49.386;8.674;2022-11-15T05:21:02;3.07;;;2.60;;
18711;SDS011;9485;49.386;8.674;2022-11-15T05:26:43;5.03;;;2.87;;
18711;SDS011;9485;49.386;8.674;2022-11-15T05:32:23;3.20;;;2.53;;
18711;SDS011;9485;49.386;8.674;2022-11-15T05:38:03;4.63;;;2.70;;
18711;SDS011;9485;49.386;8.674;2022-11-15T05:43:44;5.37;;;2.97;;
18711;SDS011;9485;49.386;8.674;2022-11-15T05:49:26;3.67;;;2.83;;
18711;SDS011;9485;49.386;8.674;2022-11-15T05:55:12;6.77;;;3.87;;
18711;SDS011;9485;49.386;8.674;2022-11-15T06:00:54;5.00;;;3.40;;
18711;SDS011;9485;49.386;8.674;2022-11-15T06:06:33;3.87;;;3.13;;
18711;SDS011;9485;49.386;8.674;2022-11-15T06:12:12;4.27;;;3.13;;
18711;SDS011;9485;49.386;8.674;2022-11-15T06:17:53;3.37;;;2.90;;
18711;SDS011;9485;49.386;8.674;2022-11-15T06:23:36;3.60;;;2.87;;
18711;SDS011;9485;49.386;8.674;2022-11-15T06:29:16;3.43;;;2.90;;
18711;SDS011;9485;49.386;8.674;2022-11-15T06:34:56;4.03;;;3.07;;
18711;SDS011;9485;49.386;8.674;2022-11-15T06:40:36;4.77;;;3.00;;
18711;SDS011;9485;49.386;8.674;2022-11-15T06:46:17;4.67;;;2.97;;
18711;SDS011;9485;49.386;8.674;2022-11-15T06:51:58;3.40;;;3.10;;
18711;SDS011;9485;49.386;8.674;2022-11-15T06:57:43;5.57;;;3.73;;
18711;SDS011;9485;49.386;8.674;2022-11-15T07:03:25;4.20;;;3.37;;
18711;SDS011;9485;49.386;8.674;2022-11-15T07:09:07;4.33;;;3.57;;
18711;SDS011;9485;49.386;8.674;2022-11-15T07:14:47;4.10;;;3.60;;
18711;SDS011;9485;49.386;8.674;2022-11-15T07:20:29;4.20;;;3.77;;
18711;SDS011;9485;49.386;8.674;2022-11-15T07:26:10;4.97;;;3.33;;
18711;SDS011;9485;49.386;8.674;2022-11-15T07:31:49;4.80;;;3.03;;
18711;SDS011;9485;49.386;8.674;2022-11-15T07:37:29;2.73;;;2.47;;
18711;SDS011;9485;49.386;8.674;2022-11-15T07:43:10;3.20;;;2.53;;
18711;SDS011;9485;49.386;8.674;2022-11-15T07:48:49;2.73;;;2.23;;
18711;SDS011;9485;49.386;8.674;2022-11-15T07:54:28;3.87;;;2.20;;
18711;SDS011;9485;49.386;8.674;2022-11-15T08:00:11;4.70;;;2.33;;
18711;SDS011;9485;49.386;8.674;2022-11-15T08:05:52;3.20;;;2.20;;
18711;SDS011;9485;49.386;8.674;2022-11-15T08:11:32;2.77;;;2.20;;
18711;SDS011;9485;49.386;8.674;2022-11-15T08:17:13;2.53;;;1.90;;
18711;SDS011;9485;49.386;8.674;2022-11-15T08:22:53;2.33;;;1.83;;
18711;SDS011;9485;49.386;8.674;2022-11-15T08:28:32;3.10;;;1.93;;
18711;SDS011;9485;49.386;8.674;2022-11-15T08:34:13;2.67;;;1.93;;
18711;SDS011;9485;49.386;8.674;2022-11-15T08:39:52;3.33;;;2.00;;
18711;SDS011;9485;49.386;8.674;2022-11-15T08:45:33;2.90;;;2.07;;
18711;SDS011;9485;49.386;8.674;2022-11-15T08:51:15;4.43;;;2.80;;
18711;SDS011;9485;49.386;8.674;2022-11-15T08:56:55;2.13;;;1.90;;
18711;SDS011;9485;49.386;8.674;2022-11-15T09:02:37;1.87;;;1.60;;
18711;SDS011;9485;49.386;8.674;2022-11-15T09:08:18;4.53;;;3.20;;
18711;SDS011;9485;49.386;8.674;2022-11-15T09:13:58;2.90;;;2.27;;
18711;SDS011;9485;49.386;8.674;2022-11-15T09:19:37;2.33;;;2.13;;
18711;SDS011;9485;49.386;8.674;2022-11-15T09:25:18;1.70;;;1.60;;
18711;SDS011;9485;49.386;8.674;2022-11-15T09:30:58;2.47;;;2.20;;
18711;SDS011;9485;49.386;8.674;2022-11-15T09:36:38;2.73;;;2.17;;
18711;SDS011;9485;49.386;8.674;2022-11-15T09:42:23;2.50;;;1.90;;
18711;SDS011;9485;49.386;8.674;2022-11-15T09:48:27;4.07;;;2.57;;
18711;SDS011;9485;49.386;8.674;2022-11-15T09:54:47;4.93;;;2.97;;
18711;SDS011;9485;49.386;8.674;2022-11-15T10:00:13;2.30;;;1.53;;
18711;SDS011;9485;49.386;8.674;2022-11-15T10:05:40;2.63;;;1.70;;
18711;SDS011;9485;49.386;8.674;2022-11-15T10:11:03;4.17;;;2.03;;
18711;SDS011;9485;49.386;8.674;2022-11-15T10:16:44;5.57;;;2.10;;
18711;SDS011;9485;49.386;8.674;2022-11-15T10:22:35;2.97;;;2.10;;
18711;SDS011;9485;49.386;8.674;2022-11-15T10:28:05;3.00;;;1.87;;
18711;SDS011;9485;49.386;8.674;2022-11-15T10:33:35;2.67;;;2.00;;
18711;SDS011;9485;49.386;8.674;2022-11-15T10:38:59;2.23;;;1.70;;
18711;SDS011;9485;49.386;8.674;2022-11-15T10:44:21;2.10;;;1.80;;
18711;SDS011;9485;49.386;8.674;2022-11-15T10:49:54;2.10;;;1.77;;
18711;SDS011;9485;49.386;8.674;2022-11-15T10:55:22;2.20;;;1.53;;
18711;SDS011;9485;49.386;8.674;2022-11-15T11:00:47;2.90;;;1.80;;
18711;SDS011;9485;49.386;8.674;2022-11-15T11:06:10;4.17;;;1.80;;
18711;SDS011;9485;49.386;8.674;2022-11-15T11:11:43;3.47;;;2.27;;
18711;SDS011;9485;49.386;8.674;2022-11-15T11:17:09;2.27;;;2.07;;
18711;SDS011;9485;49.386;8.674;2022-11-15T11:22:49;2.83;;;1.80;;
18711;SDS011;9485;49.386;8.674;2022-11-15T11:28:25;2.20;;;2.00;;
18711;SDS011;9485;49.386;8.674;2022-11-15T11:34:00;3.50;;;1.80;;
18711;SDS011;9485;49.386;8.674;2022-11-15T11:39:39;2.37;;;2.00;;
18711;SDS011;9485;49.386;8.674;2022-11-15T11:45:17;1.90;;;1.50;;
18711;SDS011;9485;49.386;8.674;2022-11-15T11:50:44;2.47;;;1.67;;
18711;SDS011;9485;49.386;8.674;2022-11-15T11:56:15;1.67;;;1.57;;
18711;SDS011;9485;49.386;8.674;2022-11-15T12:01:44;1.67;;;1.57;;
18711;SDS011;9485;49.386;8.674;2022-11-15T12:07:07;1.77;;;1.60;;
18711;SDS011;9485;49.386;8.674;2022-11-15T12:12:38;2.47;;;1.60;;
18711;SDS011;9485;49.386;8.674;2022-11-15T12:18:13;1.90;;;1.70;;
18711;SDS011;9485;49.386;8.674;2022-11-15T12:23:38;3.10;;;1.80;;
18711;SDS011;9485;49.386;8.674;2022-11-15T12:29:09;9.67;;;2.10;;
18711;SDS011;9485;49.386;8.674;2022-11-15T12:34:38;2.40;;;1.50;;
18711;SDS011;9485;49.386;8.674;2022-11-15T12:46:02;2.40;;;1.30;;
18711;SDS011;9485;49.386;8.674;2022-11-15T12:57:34;2.47;;;1.20;;
18711;SDS011;9485;49.386;8.674;2022-11-15T13:08:45;1.60;;;1.50;;
18711;SDS011;9485;49.386;8.674;2022-11-15T13:20:20;1.63;;;1.30;;
18711;SDS011;9485;49.386;8.674;2022-11-15T13:25:48;1.90;;;1.30;;
18711;SDS011;9485;49.386;8.674;2022-11-15T13:31:37;3.00;;;1.53;;
18711;SDS011;9485;49.386;8.674;2022-11-15T13:37:04;7.70;;;2.00;;
18711;SDS011;9485;49.386;8.674;2022-11-15T13:42:46;3.87;;;2.10;;
18711;SDS011;9485;49.386;8.674;2022-11-15T13:48:07;2.40;;;1.40;;
18711;SDS011;9485;49.386;8.674;2022-11-15T13:53:30;1.80;;;1.70;;
18711;SDS011;9485;49.386;8.674;2022-11-15T13:58:53;2.43;;;1.50;;
18711;SDS011;9485;49.386;8.674;2022-11-15T14:04:14;2.87;;;1.70;;
18711;SDS011;9485;49.386;8.674;2022-11-15T14:09:43;1.90;;;1.50;;
18711;SDS011;9485;49.386;8.674;2022-11-15T14:15:18;3.13;;;1.63;;
18711;SDS011;9485;49.386;8.674;2022-11-15T14:20:46;1.40;;;1.30;;
18711;SDS011;9485;49.386;8.674;2022-11-15T14:26:25;1.57;;;1.30;;
18711;SDS011;9485;49.386;8.674;2022-11-15T14:31:48;1.20;;;1.10;;
18711;SDS011;9485;49.386;8.674;2022-11-15T14:37:14;1.70;;;1.23;;
18711;SDS011;9485;49.386;8.674;2022-11-15T14:42:43;1.30;;;1.20;;
18711;SDS011;9485;49.386;8.674;2022-11-15T14:48:05;1.63;;;1.47;;
18711;SDS011;9485;49.386;8.674;2022-11-15T14:53:26;2.40;;;1.80;;
18711;SDS011;9485;49.386;8.674;2022-11-15T14:58:48;2.13;;;1.70;;
18711;SDS011;9485;49.386;8.674;2022-11-15T15:04:09;3.33;;;1.70;;
18711;SDS011;9485;49.386;8.674;2022-11-15T15:09:30;2.13;;;1.70;;
18711;SDS011;9485;49.386;8.674;2022-11-15T15:14:52;2.60;;;1.43;;
18711;SDS011;9485;49.386;8.674;2022-11-15T15:20:12;2.67;;;1.77;;
18711;SDS011;9485;49.386;8.674;2022-11-15T15:25:34;2.17;;;1.67;;
18711;SDS011;9485;49.386;8.674;2022-11-15T15:30:56;2.13;;;1.43;;
18711;SDS011;9485;49.386;8.674;2022-11-15T15:36:17;3.50;;;1.83;;
18711;SDS011;9485;49.386;8.674;2022-11-15T15:41:38;3.23;;;1.93;;
18711;SDS011;9485;49.386;8.674;2022-11-15T15:47:00;3.87;;;1.80;;
18711;SDS011;9485;49.386;8.674;2022-11-15T15:52:21;3.27;;;1.70;;
18711;SDS011;9485;49.386;8.674;2022-11-15T15:57:42;3.50;;;1.93;;
18711;SDS011;9485;49.386;8.674;2022-11-15T16:03:06;3.40;;;2.17;;
18711;SDS011;9485;49.386;8.674;2022-11-15T16:08:27;2.77;;;2.00;;
18711;SDS011;9485;49.386;8.674;2022-11-15T16:13:48;3.10;;;2.13;;
18711;SDS011;9485;49.386;8.674;2022-11-15T16:19:10;2.77;;;2.00;;
18711;SDS011;9485;49.386;8.674;2022-11-15T16:24:31;2.97;;;2.10;;
18711;SDS011;9485;49.386;8.674;2022-11-15T16:29:51;3.37;;;2.30;;
18711;SDS011;9485;49.386;8.674;2022-11-15T16:35:14;2.17;;;1.93;;
18711;SDS011;9485;49.386;8.674;2022-11-15T16:40:35;3.27;;;2.30;;
18711;SDS011;9485;49.386;8.674;2022-11-15T16:45:56;4.67;;;2.23;;
18711;SDS011;9485;49.386;8.674;2022-11-15T16:51:18;2.27;;;1.90;;
18711;SDS011;9485;49.386;8.674;2022-11-15T16:56:39;2.40;;;1.70;;
18711;SDS011;9485;49.386;8.674;2022-11-15T17:02:01;2.33;;;2.13;;
18711;SDS011;9485;49.386;8.674;2022-11-15T17:07:22;3.90;;;1.70;;
18711;SDS011;9485;49.386;8.674;2022-11-15T17:12:43;2.10;;;1.77;;
18711;SDS011;9485;49.386;8.674;2022-11-15T17:18:05;2.00;;;1.80;;
18711;SDS011;9485;49.386;8.674;2022-11-15T17:23:27;2.47;;;1.70;;
18711;SDS011;9485;49.386;8.674;2022-11-15T17:28:47;2.70;;;1.90;;
18711;SDS011;9485;49.386;8.674;2022-11-15T17:34:07;1.90;;;1.70;;
18711;SDS011;9485;49.386;8.674;2022-11-15T17:39:29;3.20;;;1.70;;
18711;SDS011;9485;49.386;8.674;2022-11-15T17:44:50;1.93;;;1.60;;
18711;SDS011;9485;49.386;8.674;2022-11-15T17:50:11;3.70;;;1.83;;
18711;SDS011;9485;49.386;8.674;2022-11-15T17:55:32;3.20;;;1.73;;
18711;SDS011;9485;49.386;8.674;2022-11-15T18:00:53;1.87;;;1.67;;
18711;SDS011;9485;49.386;8.674;2022-11-15T18:06:13;2.50;;;1.53;;
18711;SDS011;9485;49.386;8.674;2022-11-15T18:11:38;2.37;;;1.87;;
18711;SDS011;9485;49.386;8.674;2022-11-15T18:17:01;2.53;;;1.87;;
18711;SDS011;9485;49.386;8.674;2022-11-15T18:22:21;3.33;;;1.40;;
18711;SDS011;9485;49.386;8.674;2022-11-15T18:27:44;2.30;;;1.77;;
18711;SDS011;9485;49.386;8.674;2022-11-15T18:33:06;1.70;;;1.50;;
18711;SDS011;9485;49.386;8.674;2022-11-15T18:38:26;1.10;;;1.00;;
18711;SDS011;9485;49.386;8.674;2022-11-15T18:43:49;3.33;;;1.20;;
18711;SDS011;9485;49.386;8.674;2022-11-15T18:49:11;2.20;;;1.40;;
18711;SDS011;9485;49.386;8.674;2022-11-15T18:54:34;1.60;;;1.30;;
18711;SDS011;9485;49.386;8.674;2022-11-15T18:59:56;2.70;;;1.73;;
18711;SDS011;9485;49.386;8.674;2022-11-15T19:05:16;3.33;;;2.03;;
18711;SDS011;9485;49.386;8.674;2022-11-15T19:10:40;3.13;;;1.63;;
18711;SDS011;9485;49.386;8.674;2022-11-15T19:16:02;2.00;;;1.80;;
18711;SDS011;9485;49.386;8.674;2022-11-15T19:21:24;1.67;;;1.57;;
18711;SDS011;9485;49.386;8.674;2022-11-15T19:26:46;1.90;;;1.57;;
18711;SDS011;9485;49.386;8.674;2022-11-15T19:32:08;2.10;;;1.43;;
18711;SDS011;9485;49.386;8.674;2022-11-15T19:37:28;2.00;;;1.50;;
18711;SDS011;9485;49.386;8.674;2022-11-15T19:42:49;1.97;;;1.60;;
18711;SDS011;9485;49.386;8.674;2022-11-15T19:48:11;3.03;;;1.77;;
18711;SDS011;9485;49.386;8.674;2022-11-15T19:53:34;2.27;;;2.03;;
18711;SDS011;9485;49.386;8.674;2022-11-15T19:58:54;2.13;;;1.93;;
18711;SDS011;9485;49.386;8.674;2022-11-15T20:04:17;3.63;;;2.10;;
18711;SDS011;9485;49.386;8.674;2022-11-15T20:09:37;4.43;;;2.30;;
18711;SDS011;9485;49.386;8.674;2022-11-15T20:14:57;1.87;;;1.73;;
18711;SDS011;9485;49.386;8.674;2022-11-15T20:20:19;3.50;;;2.07;;
18711;SDS011;9485;49.386;8.674;2022-11-15T20:25:42;3.13;;;2.10;;
18711;SDS011;9485;49.386;8.674;2022-11-15T20:31:04;2.60;;;2.10;;
18711;SDS011;9485;49.386;8.674;2022-11-15T20:36:26;2.77;;;1.80;;
18711;SDS011;9485;49.386;8.674;2022-11-15T20:41:47;2.20;;;2.00;;
18711;SDS011;9485;49.386;8.674;2022-11-15T20:47:07;3.30;;;2.23;;
18711;SDS011;9485;49.386;8.674;2022-11-15T20:52:29;2.67;;;1.93;;
18711;SDS011;9485;49.386;8.674;2022-11-15T20:57:50;3.20;;;2.40;;
18711;SDS011;9485;49.386;8.674;2022-11-15T21:03:11;2.00;;;1.87;;
18711;SDS011;9485;49.386;8.674;2022-11-15T21:08:34;3.10;;;2.20;;
18711;SDS011;9485;49.386;8.674;2022-11-15T21:14:08;2.57;;;2.20;;
18711;SDS011;9485;49.386;8.674;2022-11-15T21:19:29;3.27;;;2.40;;
18711;SDS011;9485;49.386;8.674;2022-11-15T21:24:51;2.63;;;2.20;;
18711;SDS011;9485;49.386;8.674;2022-11-15T21:30:12;2.37;;;2.17;;
18711;SDS011;9485;49.386;8.674;2022-11-15T21:35:33;3.00;;;1.83;;
18711;SDS011;9485;49.386;8.674;2022-11-15T21:40:55;3.23;;;2.20;;
18711;SDS011;9485;49.386;8.674;2022-11-15T21:46:16;3.07;;;1.97;;
18711;SDS011;9485;49.386;8.674;2022-11-15T21:51:36;5.13;;;2.03;;
18711;SDS011;9485;49.386;8.674;2022-11-15T21:56:58;2.87;;;2.10;;
18711;SDS011;9485;49.386;8.674;2022-11-15T22:02:18;2.13;;;1.90;;
18711;SDS011;9485;49.386;8.674;2022-11-15T22:07:39;2.47;;;2.07;;
18711;SDS011;9485;49.386;8.674;2022-11-15T22:13:01;2.27;;;2.00;;
18711;SDS011;9485;49.386;8.674;2022-11-15T22:18:22;2.57;;;2.10;;
18711;SDS011;9485;49.386;8.674;2022-11-15T22:23:45;3.60;;;2.20;;
18711;SDS011;9485;49.386;8.674;2022-11-15T22:29:07;2.60;;;1.97;;
18711;SDS011;9485;49.386;8.674;2022-11-15T22:34:28;2.90;;;2.60;;
18711;SDS011;9485;49.386;8.674;2022-11-15T22:39:49;2.63;;;2.30;;
18711;SDS011;9485;49.386;8.674;2022-11-15T22:45:11;2.90;;;2.60;;
18711;SDS011;9485;49.386;8.674;2022-11-15T22:50:31;3.73;;;2.00;;
18711;SDS011;9485;49.386;8.674;2022-11-15T22:55:52;2.47;;;2.10;;
18711;SDS011;9485;49.386;8.674;2022-11-15T23:01:18;2.60;;;2.40;;
18711;SDS011;9485;49.386;8.674;2022-11-15T23:06:42;3.63;;;2.30;;
18711;SDS011;9485;49.386;8.674;2022-11-15T23:12:03;3.70;;;2.70;;
18711;SDS011;9485;49.386;8.674;2022-11-15T23:17:46;3.53;;;2.60;;
18711;SDS011;9485;49.386;8.674;2022-11-15T23:23:08;3.33;;;2.30;;
18711;SDS011;9485;49.386;8.674;2022-11-15T23:28:30;3.83;;;2.80;;
18711;SDS011;9485;49.386;8.674;2022-11-15T23:33:53;4.00;;;2.87;;
18711;SDS011;9485;49.386;8.674;2022-11-15T23:39:16;2.50;;;2.30;;
18711;SDS011;9485;49.386;8.674;2022-11-15T23:44:37;2.97;;;2.23;;
18711;SDS011;9485;49.386;8.674;2022-11-15T23:49:59;2.77;;;2.13;;
18711;SDS011;9485;49.386;8.674;2022-11-15T23:55:20;3.73;;;2.30;;
